sensor_id;sensor_type;location;lat;lon;timestamp;temperature;humidity
11140;DHT22;5624;49.388;11.350;2024-01-07T00:01:32;2.00;99.90
11140;DHT22;5624;49.388;11.350;2024-01-07T00:03:57;2.10;99.90
11140;DHT22;5624;49.388;11.350;2024-01-07T00:06:23;2.00;99.90
11140;DHT22;5624;49.388;11.350;2024-01-07T00:08:48;2.00;99.90
11140;DHT22;5624;49.388;11.350;2024-01-07T00:11:14;2.00;99.90
11140;DHT22;5624;49.388;11.350;2024-01-07T00:13:40;2.10;99.90
11140;DHT22;5624;49.388;11.350;2024-01-07T00:16:05;2.00;99.90
11140;DHT22;5624;49.388;11.350;2024-01-07T00:18:31;2.10;99.90
11140;DHT22;5624;49.388;11.350;2024-01-07T00:20:57;2.00;99.90
11140;DHT22;5624;49.388;11.350;2024-01-07T00:23:22;2.00;99.90
11140;DHT22;5624;49.388;11.350;2024-01-07T00:25:48;2.00;99.90
11140;DHT22;5624;49.388;11.350;2024-01-07T00:28:14;2.00;99.90
11140;DHT22;5624;49.388;11.350;2024-01-07T00:30:40;2.00;99.90
11140;DHT22;5624;49.388;11.350;2024-01-07T00:33:06;2.10;99.90
11140;DHT22;5624;49.388;11.350;2024-01-07T00:35:32;2.10;99.90
11140;DHT22;5624;49.388;11.350;2024-01-07T00:37:58;2.20;99.90
11140;DHT22;5624;49.388;11.350;2024-01-07T00:40:24;2.20;99.90
11140;DHT22;5624;49.388;11.350;2024-01-07T00:42:50;2.20;99.90
11140;DHT22;5624;49.388;11.350;2024-01-07T00:45:17;2.20;99.90
11140;DHT22;5624;49.388;11.350;2024-01-07T00:47:43;2.30;99.90
11140;DHT22;5624;49.388;11.350;2024-01-07T00:50:09;2.30;99.90
11140;DHT22;5624;49.388;11.350;2024-01-07T00:52:34;2.40;99.90
11140;DHT22;5624;49.388;11.350;2024-01-07T00:55:06;2.40;99.90
11140;DHT22;5624;49.388;11.350;2024-01-07T00:57:32;2.40;99.90
11140;DHT22;5624;49.388;11.350;2024-01-07T00:59:58;2.30;99.90
11140;DHT22;5624;49.388;11.350;2024-01-07T01:02:24;2.40;99.90
11140;DHT22;5624;49.388;11.350;2024-01-07T01:04:50;2.30;99.90
11140;DHT22;5624;49.388;11.350;2024-01-07T01:07:15;2.40;99.90
11140;DHT22;5624;49.388;11.350;2024-01-07T01:09:41;2.40;99.90
11140;DHT22;5624;49.388;11.350;2024-01-07T01:12:06;2.40;99.90
11140;DHT22;5624;49.388;11.350;2024-01-07T01:14:32;2.40;99.90
11140;DHT22;5624;49.388;11.350;2024-01-07T01:16:57;2.30;99.90
11140;DHT22;5624;49.388;11.350;2024-01-07T01:19:24;2.30;99.90
11140;DHT22;5624;49.388;11.350;2024-01-07T01:21:49;2.30;99.90
11140;DHT22;5624;49.388;11.350;2024-01-07T01:24:15;2.30;99.90
11140;DHT22;5624;49.388;11.350;2024-01-07T01:26:40;2.30;99.90
11140;DHT22;5624;49.388;11.350;2024-01-07T01:29:06;2.30;99.90
11140;DHT22;5624;49.388;11.350;2024-01-07T01:31:32;2.20;99.90
11140;DHT22;5624;49.388;11.350;2024-01-07T01:33:57;2.20;99.90
11140;DHT22;5624;49.388;11.350;2024-01-07T01:36:23;2.20;99.90
11140;DHT22;5624;49.388;11.350;2024-01-07T01:38:49;2.20;99.90
11140;DHT22;5624;49.388;11.350;2024-01-07T01:41:16;2.20;99.90
11140;DHT22;5624;49.388;11.350;2024-01-07T01:43:41;2.20;99.90
11140;DHT22;5624;49.388;11.350;2024-01-07T01:46:07;2.20;99.90
11140;DHT22;5624;49.388;11.350;2024-01-07T01:48:33;2.30;99.90
11140;DHT22;5624;49.388;11.350;2024-01-07T01:51:00;2.30;99.90
11140;DHT22;5624;49.388;11.350;2024-01-07T01:53:26;2.20;99.90
11140;DHT22;5624;49.388;11.350;2024-01-07T01:55:53;2.20;99.90
11140;DHT22;5624;49.388;11.350;2024-01-07T01:58:20;2.10;99.90
11140;DHT22;5624;49.388;11.350;2024-01-07T02:00:47;2.10;99.90
11140;DHT22;5624;49.388;11.350;2024-01-07T02:03:12;2.10;99.90
11140;DHT22;5624;49.388;11.350;2024-01-07T02:05:38;2.10;99.90
11140;DHT22;5624;49.388;11.350;2024-01-07T02:08:04;2.10;99.90
11140;DHT22;5624;49.388;11.350;2024-01-07T02:10:30;2.00;99.90
11140;DHT22;5624;49.388;11.350;2024-01-07T02:13:00;2.10;99.90
11140;DHT22;5624;49.388;11.350;2024-01-07T02:15:26;2.30;99.90
11140;DHT22;5624;49.388;11.350;2024-01-07T02:17:51;2.30;99.90
11140;DHT22;5624;49.388;11.350;2024-01-07T02:20:17;2.30;99.90
11140;DHT22;5624;49.388;11.350;2024-01-07T02:22:42;2.30;99.90
11140;DHT22;5624;49.388;11.350;2024-01-07T02:25:08;2.40;99.90
11140;DHT22;5624;49.388;11.350;2024-01-07T02:27:34;2.30;99.90
11140;DHT22;5624;49.388;11.350;2024-01-07T02:29:59;2.30;99.90
11140;DHT22;5624;49.388;11.350;2024-01-07T02:32:25;2.30;99.90
11140;DHT22;5624;49.388;11.350;2024-01-07T02:34:51;2.30;99.90
11140;DHT22;5624;49.388;11.350;2024-01-07T02:37:16;2.20;99.90
11140;DHT22;5624;49.388;11.350;2024-01-07T02:39:42;2.20;99.90
11140;DHT22;5624;49.388;11.350;2024-01-07T02:42:07;2.20;99.90
11140;DHT22;5624;49.388;11.350;2024-01-07T02:44:33;2.20;99.90
11140;DHT22;5624;49.388;11.350;2024-01-07T02:46:58;2.20;99.90
11140;DHT22;5624;49.388;11.350;2024-01-07T02:49:24;2.30;99.90
11140;DHT22;5624;49.388;11.350;2024-01-07T02:51:49;2.20;99.90
11140;DHT22;5624;49.388;11.350;2024-01-07T02:54:15;2.20;99.90
11140;DHT22;5624;49.388;11.350;2024-01-07T02:56:41;2.10;99.90
11140;DHT22;5624;49.388;11.350;2024-01-07T02:59:07;2.20;99.90
11140;DHT22;5624;49.388;11.350;2024-01-07T03:01:33;2.20;99.90
11140;DHT22;5624;49.388;11.350;2024-01-07T03:04:06;2.20;99.90
11140;DHT22;5624;49.388;11.350;2024-01-07T03:06:32;2.10;99.90
11140;DHT22;5624;49.388;11.350;2024-01-07T03:08:58;2.10;99.90
11140;DHT22;5624;49.388;11.350;2024-01-07T03:11:24;2.00;99.90
11140;DHT22;5624;49.388;11.350;2024-01-07T03:13:50;2.00;99.90
11140;DHT22;5624;49.388;11.350;2024-01-07T03:16:20;2.00;99.90
11140;DHT22;5624;49.388;11.350;2024-01-07T03:18:46;2.00;99.90
11140;DHT22;5624;49.388;11.350;2024-01-07T03:21:22;2.00;99.90
11140;DHT22;5624;49.388;11.350;2024-01-07T03:23:48;2.00;99.90
11140;DHT22;5624;49.388;11.350;2024-01-07T03:26:15;2.00;99.90
11140;DHT22;5624;49.388;11.350;2024-01-07T03:28:41;2.00;99.90
11140;DHT22;5624;49.388;11.350;2024-01-07T03:31:10;1.90;99.90
11140;DHT22;5624;49.388;11.350;2024-01-07T03:33:40;1.80;99.90
11140;DHT22;5624;49.388;11.350;2024-01-07T03:36:12;1.80;99.90
11140;DHT22;5624;49.388;11.350;2024-01-07T03:38:39;1.80;99.90
11140;DHT22;5624;49.388;11.350;2024-01-07T03:41:05;1.90;99.90
11140;DHT22;5624;49.388;11.350;2024-01-07T03:43:31;1.90;99.90
11140;DHT22;5624;49.388;11.350;2024-01-07T03:45:57;1.90;99.90
11140;DHT22;5624;49.388;11.350;2024-01-07T03:48:23;1.80;99.90
11140;DHT22;5624;49.388;11.350;2024-01-07T03:50:48;1.90;99.90
11140;DHT22;5624;49.388;11.350;2024-01-07T03:53:16;1.90;99.90
11140;DHT22;5624;49.388;11.350;2024-01-07T03:55:41;1.90;99.90
11140;DHT22;5624;49.388;11.350;2024-01-07T03:58:07;1.80;99.90
11140;DHT22;5624;49.388;11.350;2024-01-07T04:00:33;1.90;99.90
11140;DHT22;5624;49.388;11.350;2024-01-07T04:03:00;1.90;99.90
11140;DHT22;5624;49.388;11.350;2024-01-07T04:05:26;1.90;99.90
11140;DHT22;5624;49.388;11.350;2024-01-07T04:07:51;1.90;99.90
11140;DHT22;5624;49.388;11.350;2024-01-07T04:10:18;1.90;99.90
11140;DHT22;5624;49.388;11.350;2024-01-07T04:12:45;1.90;99.90
11140;DHT22;5624;49.388;11.350;2024-01-07T04:15:13;1.80;99.90
11140;DHT22;5624;49.388;11.350;2024-01-07T04:17:39;1.80;99.90
11140;DHT22;5624;49.388;11.350;2024-01-07T04:20:06;1.70;99.90
11140;DHT22;5624;49.388;11.350;2024-01-07T04:22:32;1.80;99.90
11140;DHT22;5624;49.388;11.350;2024-01-07T04:24:57;1.80;99.90
11140;DHT22;5624;49.388;11.350;2024-01-07T04:27:23;1.70;99.90
11140;DHT22;5624;49.388;11.350;2024-01-07T04:29:50;1.70;99.90
11140;DHT22;5624;49.388;11.350;2024-01-07T04:32:15;1.60;99.90
11140;DHT22;5624;49.388;11.350;2024-01-07T04:34:41;1.70;99.90
11140;DHT22;5624;49.388;11.350;2024-01-07T04:37:07;1.60;99.90
11140;DHT22;5624;49.388;11.350;2024-01-07T04:39:32;1.60;99.90
11140;DHT22;5624;49.388;11.350;2024-01-07T04:41:58;1.60;99.90
11140;DHT22;5624;49.388;11.350;2024-01-07T04:44:23;1.60;99.90
11140;DHT22;5624;49.388;11.350;2024-01-07T04:46:49;1.60;99.20
11140;DHT22;5624;49.388;11.350;2024-01-07T04:49:15;1.60;98.90
11140;DHT22;5624;49.388;11.350;2024-01-07T04:51:40;1.60;99.00
11140;DHT22;5624;49.388;11.350;2024-01-07T04:54:06;1.50;98.80
11140;DHT22;5624;49.388;11.350;2024-01-07T04:56:32;1.50;97.80
11140;DHT22;5624;49.388;11.350;2024-01-07T04:58:58;1.40;99.40
11140;DHT22;5624;49.388;11.350;2024-01-07T05:01:23;1.40;99.60
11140;DHT22;5624;49.388;11.350;2024-01-07T05:03:49;1.40;99.00
11140;DHT22;5624;49.388;11.350;2024-01-07T05:06:15;1.40;98.50
11140;DHT22;5624;49.388;11.350;2024-01-07T05:08:41;1.30;97.90
11140;DHT22;5624;49.388;11.350;2024-01-07T05:11:07;1.30;99.60
11140;DHT22;5624;49.388;11.350;2024-01-07T05:13:33;1.20;99.90
11140;DHT22;5624;49.388;11.350;2024-01-07T05:15:59;1.30;99.90
11140;DHT22;5624;49.388;11.350;2024-01-07T05:18:25;1.20;99.90
11140;DHT22;5624;49.388;11.350;2024-01-07T05:20:51;1.20;99.90
11140;DHT22;5624;49.388;11.350;2024-01-07T05:23:16;1.20;99.90
11140;DHT22;5624;49.388;11.350;2024-01-07T05:25:43;1.20;99.90
11140;DHT22;5624;49.388;11.350;2024-01-07T05:28:09;1.10;99.90
11140;DHT22;5624;49.388;11.350;2024-01-07T05:30:34;1.00;99.90
11140;DHT22;5624;49.388;11.350;2024-01-07T05:33:00;1.10;99.90
11140;DHT22;5624;49.388;11.350;2024-01-07T05:35:26;1.10;99.90
11140;DHT22;5624;49.388;11.350;2024-01-07T05:37:52;1.20;99.90
11140;DHT22;5624;49.388;11.350;2024-01-07T05:40:18;1.10;99.90
11140;DHT22;5624;49.388;11.350;2024-01-07T05:42:43;1.10;99.90
11140;DHT22;5624;49.388;11.350;2024-01-07T05:45:09;1.10;99.90
11140;DHT22;5624;49.388;11.350;2024-01-07T05:47:34;1.00;99.60
11140;DHT22;5624;49.388;11.350;2024-01-07T05:50:00;1.00;99.50
11140;DHT22;5624;49.388;11.350;2024-01-07T05:52:25;1.00;99.30
11140;DHT22;5624;49.388;11.350;2024-01-07T05:54:51;1.00;99.10
11140;DHT22;5624;49.388;11.350;2024-01-07T05:57:17;1.00;99.20
11140;DHT22;5624;49.388;11.350;2024-01-07T05:59:46;0.90;99.90
11140;DHT22;5624;49.388;11.350;2024-01-07T06:02:11;0.80;99.90
11140;DHT22;5624;49.388;11.350;2024-01-07T06:04:38;0.90;99.90
11140;DHT22;5624;49.388;11.350;2024-01-07T06:07:04;0.90;99.90
11140;DHT22;5624;49.388;11.350;2024-01-07T06:09:30;0.90;99.00
11140;DHT22;5624;49.388;11.350;2024-01-07T06:11:55;0.90;99.50
11140;DHT22;5624;49.388;11.350;2024-01-07T06:14:22;0.90;99.90
11140;DHT22;5624;49.388;11.350;2024-01-07T06:16:48;0.90;99.00
11140;DHT22;5624;49.388;11.350;2024-01-07T06:19:13;0.90;99.10
11140;DHT22;5624;49.388;11.350;2024-01-07T06:21:40;0.90;99.10
11140;DHT22;5624;49.388;11.350;2024-01-07T06:24:08;0.80;99.90
11140;DHT22;5624;49.388;11.350;2024-01-07T06:26:34;0.70;99.90
11140;DHT22;5624;49.388;11.350;2024-01-07T06:28:59;0.70;99.90
11140;DHT22;5624;49.388;11.350;2024-01-07T06:31:25;0.70;99.90
11140;DHT22;5624;49.388;11.350;2024-01-07T06:33:51;0.70;99.90
11140;DHT22;5624;49.388;11.350;2024-01-07T06:36:17;0.70;99.90
11140;DHT22;5624;49.388;11.350;2024-01-07T06:38:42;0.70;99.90
11140;DHT22;5624;49.388;11.350;2024-01-07T06:41:09;0.70;99.90
11140;DHT22;5624;49.388;11.350;2024-01-07T06:43:35;0.70;99.80
11140;DHT22;5624;49.388;11.350;2024-01-07T06:46:01;0.60;99.90
11140;DHT22;5624;49.388;11.350;2024-01-07T06:48:26;0.60;99.90
11140;DHT22;5624;49.388;11.350;2024-01-07T06:50:52;0.70;99.90
11140;DHT22;5624;49.388;11.350;2024-01-07T06:53:17;0.60;99.80
11140;DHT22;5624;49.388;11.350;2024-01-07T06:55:43;0.60;99.90
11140;DHT22;5624;49.388;11.350;2024-01-07T06:58:09;0.60;99.90
11140;DHT22;5624;49.388;11.350;2024-01-07T07:00:34;0.70;99.70
11140;DHT22;5624;49.388;11.350;2024-01-07T07:03:00;0.70;99.90
11140;DHT22;5624;49.388;11.350;2024-01-07T07:05:25;0.70;99.00
11140;DHT22;5624;49.388;11.350;2024-01-07T07:07:51;0.70;99.80
11140;DHT22;5624;49.388;11.350;2024-01-07T07:10:16;0.70;99.80
11140;DHT22;5624;49.388;11.350;2024-01-07T07:12:42;0.70;99.20
11140;DHT22;5624;49.388;11.350;2024-01-07T07:15:08;0.60;99.90
11140;DHT22;5624;49.388;11.350;2024-01-07T07:17:36;0.60;99.90
11140;DHT22;5624;49.388;11.350;2024-01-07T07:20:02;0.60;99.90
11140;DHT22;5624;49.388;11.350;2024-01-07T07:22:27;0.60;99.90
11140;DHT22;5624;49.388;11.350;2024-01-07T07:24:53;0.60;99.90
11140;DHT22;5624;49.388;11.350;2024-01-07T07:27:19;0.60;99.90
11140;DHT22;5624;49.388;11.350;2024-01-07T07:29:44;0.60;99.90
11140;DHT22;5624;49.388;11.350;2024-01-07T07:32:10;0.60;99.90
11140;DHT22;5624;49.388;11.350;2024-01-07T07:34:35;0.60;99.90
11140;DHT22;5624;49.388;11.350;2024-01-07T07:37:01;0.60;99.90
11140;DHT22;5624;49.388;11.350;2024-01-07T07:39:26;0.50;99.90
11140;DHT22;5624;49.388;11.350;2024-01-07T07:41:52;0.60;99.40
11140;DHT22;5624;49.388;11.350;2024-01-07T07:44:17;0.70;99.00
11140;DHT22;5624;49.388;11.350;2024-01-07T07:46:43;0.70;98.50
11140;DHT22;5624;49.388;11.350;2024-01-07T07:49:08;0.60;98.40
11140;DHT22;5624;49.388;11.350;2024-01-07T07:51:34;0.50;98.90
11140;DHT22;5624;49.388;11.350;2024-01-07T07:53:59;0.50;99.20
11140;DHT22;5624;49.388;11.350;2024-01-07T07:56:25;0.60;99.00
11140;DHT22;5624;49.388;11.350;2024-01-07T07:58:50;0.60;99.10
11140;DHT22;5624;49.388;11.350;2024-01-07T08:01:17;0.60;98.50
11140;DHT22;5624;49.388;11.350;2024-01-07T08:03:43;0.60;98.20
11140;DHT22;5624;49.388;11.350;2024-01-07T08:06:09;0.60;98.20
11140;DHT22;5624;49.388;11.350;2024-01-07T08:08:34;0.50;97.80
11140;DHT22;5624;49.388;11.350;2024-01-07T08:11:00;0.50;98.30
11140;DHT22;5624;49.388;11.350;2024-01-07T08:13:26;0.40;98.70
11140;DHT22;5624;49.388;11.350;2024-01-07T08:15:52;0.30;98.60
11140;DHT22;5624;49.388;11.350;2024-01-07T08:18:17;0.40;98.40
11140;DHT22;5624;49.388;11.350;2024-01-07T08:20:43;0.40;96.80
11140;DHT22;5624;49.388;11.350;2024-01-07T08:23:08;0.30;98.00
11140;DHT22;5624;49.388;11.350;2024-01-07T08:25:35;0.30;99.20
11140;DHT22;5624;49.388;11.350;2024-01-07T08:28:01;0.30;98.40
11140;DHT22;5624;49.388;11.350;2024-01-07T08:30:26;0.40;97.90
11140;DHT22;5624;49.388;11.350;2024-01-07T08:32:52;0.40;97.70
11140;DHT22;5624;49.388;11.350;2024-01-07T08:35:17;0.30;97.20
11140;DHT22;5624;49.388;11.350;2024-01-07T08:37:43;0.20;96.70
11140;DHT22;5624;49.388;11.350;2024-01-07T08:40:10;0.10;97.80
11140;DHT22;5624;49.388;11.350;2024-01-07T08:42:36;0.10;97.30
11140;DHT22;5624;49.388;11.350;2024-01-07T08:45:02;0.00;98.60
11140;DHT22;5624;49.388;11.350;2024-01-07T08:47:29;0.00;98.90
11140;DHT22;5624;49.388;11.350;2024-01-07T08:49:56;0.10;98.80
11140;DHT22;5624;49.388;11.350;2024-01-07T08:52:22;0.00;97.70
11140;DHT22;5624;49.388;11.350;2024-01-07T08:54:48;0.00;99.00
11140;DHT22;5624;49.388;11.350;2024-01-07T08:57:13;0.00;98.90
11140;DHT22;5624;49.388;11.350;2024-01-07T08:59:39;0.00;98.30
11140;DHT22;5624;49.388;11.350;2024-01-07T09:02:04;0.00;98.30
11140;DHT22;5624;49.388;11.350;2024-01-07T09:04:30;0.00;98.20
11140;DHT22;5624;49.388;11.350;2024-01-07T09:06:56;0.00;97.80
11140;DHT22;5624;49.388;11.350;2024-01-07T09:09:21;-0.10;98.50
11140;DHT22;5624;49.388;11.350;2024-01-07T09:11:47;-0.10;99.30
11140;DHT22;5624;49.388;11.350;2024-01-07T09:14:13;0.00;98.70
11140;DHT22;5624;49.388;11.350;2024-01-07T09:16:40;0.00;97.90
11140;DHT22;5624;49.388;11.350;2024-01-07T09:19:05;0.00;97.20
11140;DHT22;5624;49.388;11.350;2024-01-07T09:21:31;0.00;97.40
11140;DHT22;5624;49.388;11.350;2024-01-07T09:23:56;0.00;97.60
11140;DHT22;5624;49.388;11.350;2024-01-07T09:26:22;0.00;97.00
11140;DHT22;5624;49.388;11.350;2024-01-07T09:28:47;-0.10;98.00
11140;DHT22;5624;49.388;11.350;2024-01-07T09:31:13;-0.20;97.60
11140;DHT22;5624;49.388;11.350;2024-01-07T09:33:38;-0.20;98.50
11140;DHT22;5624;49.388;11.350;2024-01-07T09:36:04;-0.30;99.80
11140;DHT22;5624;49.388;11.350;2024-01-07T09:38:30;-0.20;99.40
11140;DHT22;5624;49.388;11.350;2024-01-07T09:40:56;-0.30;99.70
11140;DHT22;5624;49.388;11.350;2024-01-07T09:43:21;-0.30;99.40
11140;DHT22;5624;49.388;11.350;2024-01-07T09:45:47;-0.20;97.90
11140;DHT22;5624;49.388;11.350;2024-01-07T09:48:14;-0.20;97.40
11140;DHT22;5624;49.388;11.350;2024-01-07T09:50:40;-0.30;98.40
11140;DHT22;5624;49.388;11.350;2024-01-07T09:53:07;-0.30;97.70
11140;DHT22;5624;49.388;11.350;2024-01-07T09:55:46;-0.30;99.00
11140;DHT22;5624;49.388;11.350;2024-01-07T09:58:13;-0.30;98.40
11140;DHT22;5624;49.388;11.350;2024-01-07T10:00:38;-0.30;98.30
11140;DHT22;5624;49.388;11.350;2024-01-07T10:03:05;-0.30;98.70
11140;DHT22;5624;49.388;11.350;2024-01-07T10:05:30;-0.20;99.40
11140;DHT22;5624;49.388;11.350;2024-01-07T10:07:56;-0.20;98.00
11140;DHT22;5624;49.388;11.350;2024-01-07T10:10:23;-0.20;98.00
11140;DHT22;5624;49.388;11.350;2024-01-07T10:12:48;-0.20;98.30
11140;DHT22;5624;49.388;11.350;2024-01-07T10:15:14;-0.20;98.20
11140;DHT22;5624;49.388;11.350;2024-01-07T10:17:41;-0.20;97.80
11140;DHT22;5624;49.388;11.350;2024-01-07T10:20:08;-0.20;97.50
11140;DHT22;5624;49.388;11.350;2024-01-07T10:22:37;-0.30;97.50
11140;DHT22;5624;49.388;11.350;2024-01-07T10:25:06;-0.40;97.30
11140;DHT22;5624;49.388;11.350;2024-01-07T10:27:35;-0.40;98.00
11140;DHT22;5624;49.388;11.350;2024-01-07T10:30:02;-0.40;98.90
11140;DHT22;5624;49.388;11.350;2024-01-07T10:32:28;-0.40;98.60
11140;DHT22;5624;49.388;11.350;2024-01-07T10:35:01;-0.40;98.50
11140;DHT22;5624;49.388;11.350;2024-01-07T10:37:27;-0.40;99.50
11140;DHT22;5624;49.388;11.350;2024-01-07T10:39:53;-0.30;98.90
11140;DHT22;5624;49.388;11.350;2024-01-07T10:42:22;-0.30;98.20
11140;DHT22;5624;49.388;11.350;2024-01-07T10:44:48;-0.30;97.80
11140;DHT22;5624;49.388;11.350;2024-01-07T10:47:15;-0.20;98.30
11140;DHT22;5624;49.388;11.350;2024-01-07T10:49:44;-0.10;97.50
11140;DHT22;5624;49.388;11.350;2024-01-07T10:52:12;-0.10;96.00
11140;DHT22;5624;49.388;11.350;2024-01-07T10:54:39;-0.30;96.30
11140;DHT22;5624;49.388;11.350;2024-01-07T10:59:50;-0.20;97.20
11140;DHT22;5624;49.388;11.350;2024-01-07T11:02:17;-0.20;96.80
11140;DHT22;5624;49.388;11.350;2024-01-07T11:05:25;-0.30;96.80
11140;DHT22;5624;49.388;11.350;2024-01-07T11:07:45;-0.30;95.40
11140;DHT22;5624;49.388;11.350;2024-01-07T11:10:20;-0.40;96.90
11140;DHT22;5624;49.388;11.350;2024-01-07T11:12:54;-0.30;95.80
11140;DHT22;5624;49.388;11.350;2024-01-07T11:18:18;-0.30;96.50
11140;DHT22;5624;49.388;11.350;2024-01-07T11:20:44;-0.30;95.90
11140;DHT22;5624;49.388;11.350;2024-01-07T11:23:27;-0.30;95.90
11140;DHT22;5624;49.388;11.350;2024-01-07T11:26:00;-0.30;96.20
11140;DHT22;5624;49.388;11.350;2024-01-07T11:31:17;-0.40;95.50
11140;DHT22;5624;49.388;11.350;2024-01-07T11:33:44;-0.50;96.40
11140;DHT22;5624;49.388;11.350;2024-01-07T11:36:15;-0.60;96.00
11140;DHT22;5624;49.388;11.350;2024-01-07T11:38:46;-0.50;96.90
11140;DHT22;5624;49.388;11.350;2024-01-07T11:41:13;-0.50;96.90
11140;DHT22;5624;49.388;11.350;2024-01-07T11:43:55;-0.40;96.50
11140;DHT22;5624;49.388;11.350;2024-01-07T11:46:23;-0.40;94.90
11140;DHT22;5624;49.388;11.350;2024-01-07T11:48:58;-0.40;94.70
11140;DHT22;5624;49.388;11.350;2024-01-07T11:51:31;-0.60;94.80
11140;DHT22;5624;49.388;11.350;2024-01-07T11:53:57;-0.60;95.80
11140;DHT22;5624;49.388;11.350;2024-01-07T11:56:24;-0.60;96.40
11140;DHT22;5624;49.388;11.350;2024-01-07T11:58:51;-0.60;95.60
11140;DHT22;5624;49.388;11.350;2024-01-07T12:01:17;-0.60;95.90
11140;DHT22;5624;49.388;11.350;2024-01-07T12:03:44;-0.60;96.30
11140;DHT22;5624;49.388;11.350;2024-01-07T12:06:09;-0.50;95.40
11140;DHT22;5624;49.388;11.350;2024-01-07T12:08:40;-0.50;96.40
11140;DHT22;5624;49.388;11.350;2024-01-07T12:11:05;-0.60;95.40
11140;DHT22;5624;49.388;11.350;2024-01-07T12:13:31;-0.60;95.50
11140;DHT22;5624;49.388;11.350;2024-01-07T12:15:57;-0.60;95.40
11140;DHT22;5624;49.388;11.350;2024-01-07T12:18:23;-0.50;95.30
11140;DHT22;5624;49.388;11.350;2024-01-07T12:21:00;-0.60;94.70
11140;DHT22;5624;49.388;11.350;2024-01-07T12:23:26;-0.60;95.60
11140;DHT22;5624;49.388;11.350;2024-01-07T12:25:55;-0.60;95.50
11140;DHT22;5624;49.388;11.350;2024-01-07T12:28:32;-0.60;94.50
11140;DHT22;5624;49.388;11.350;2024-01-07T12:30:57;-0.60;95.80
11140;DHT22;5624;49.388;11.350;2024-01-07T12:33:26;-0.70;95.50
11140;DHT22;5624;49.388;11.350;2024-01-07T12:35:51;-0.70;96.00
11140;DHT22;5624;49.388;11.350;2024-01-07T12:38:23;-0.70;95.40
11140;DHT22;5624;49.388;11.350;2024-01-07T12:40:49;-0.50;95.50
11140;DHT22;5624;49.388;11.350;2024-01-07T12:43:15;-0.60;93.70
11140;DHT22;5624;49.388;11.350;2024-01-07T12:45:41;-0.50;94.60
11140;DHT22;5624;49.388;11.350;2024-01-07T12:48:06;-0.50;94.70
11140;DHT22;5624;49.388;11.350;2024-01-07T12:50:32;-0.50;94.50
11140;DHT22;5624;49.388;11.350;2024-01-07T12:52:58;-0.60;93.80
11140;DHT22;5624;49.388;11.350;2024-01-07T12:55:24;-0.60;94.00
11140;DHT22;5624;49.388;11.350;2024-01-07T12:57:53;-0.70;95.80
11140;DHT22;5624;49.388;11.350;2024-01-07T13:00:19;-0.70;95.50
11140;DHT22;5624;49.388;11.350;2024-01-07T13:02:45;-0.80;94.60
11140;DHT22;5624;49.388;11.350;2024-01-07T13:05:11;-0.80;95.40
11140;DHT22;5624;49.388;11.350;2024-01-07T13:07:38;-0.60;95.50
11140;DHT22;5624;49.388;11.350;2024-01-07T13:10:04;-0.60;94.40
11140;DHT22;5624;49.388;11.350;2024-01-07T13:12:30;-0.70;94.50
11140;DHT22;5624;49.388;11.350;2024-01-07T13:14:55;-0.70;95.20
11140;DHT22;5624;49.388;11.350;2024-01-07T13:17:21;-0.80;94.50
11140;DHT22;5624;49.388;11.350;2024-01-07T13:19:46;-0.80;94.70
11140;DHT22;5624;49.388;11.350;2024-01-07T13:22:12;-0.80;95.00
11140;DHT22;5624;49.388;11.350;2024-01-07T13:24:39;-0.80;94.20
11140;DHT22;5624;49.388;11.350;2024-01-07T13:27:05;-0.70;94.40
11140;DHT22;5624;49.388;11.350;2024-01-07T13:29:31;-0.70;94.20
11140;DHT22;5624;49.388;11.350;2024-01-07T13:31:56;-0.70;94.00
11140;DHT22;5624;49.388;11.350;2024-01-07T13:34:22;-0.70;93.40
11140;DHT22;5624;49.388;11.350;2024-01-07T13:36:48;-0.90;93.10
11140;DHT22;5624;49.388;11.350;2024-01-07T13:39:13;-1.00;93.20
11140;DHT22;5624;49.388;11.350;2024-01-07T13:41:41;-1.00;93.50
11140;DHT22;5624;49.388;11.350;2024-01-07T13:44:07;-0.90;93.60
11140;DHT22;5624;49.388;11.350;2024-01-07T13:46:33;-0.90;93.20
11140;DHT22;5624;49.388;11.350;2024-01-07T13:48:59;-0.80;92.70
11140;DHT22;5624;49.388;11.350;2024-01-07T13:51:25;-0.80;94.10
11140;DHT22;5624;49.388;11.350;2024-01-07T13:53:51;-0.70;95.10
11140;DHT22;5624;49.388;11.350;2024-01-07T13:56:17;-0.60;93.00
11140;DHT22;5624;49.388;11.350;2024-01-07T13:58:42;-0.70;92.50
11140;DHT22;5624;49.388;11.350;2024-01-07T14:01:12;-0.70;92.10
11140;DHT22;5624;49.388;11.350;2024-01-07T14:03:37;-0.80;92.20
11140;DHT22;5624;49.388;11.350;2024-01-07T14:06:03;-0.70;92.80
11140;DHT22;5624;49.388;11.350;2024-01-07T14:08:29;-0.70;92.40
11140;DHT22;5624;49.388;11.350;2024-01-07T14:10:54;-0.70;91.80
11140;DHT22;5624;49.388;11.350;2024-01-07T14:13:20;-0.80;91.30
11140;DHT22;5624;49.388;11.350;2024-01-07T14:15:46;-0.90;91.60
11140;DHT22;5624;49.388;11.350;2024-01-07T14:18:12;-1.00;92.40
11140;DHT22;5624;49.388;11.350;2024-01-07T14:20:41;-1.00;90.90
11140;DHT22;5624;49.388;11.350;2024-01-07T14:23:07;-1.00;90.80
11140;DHT22;5624;49.388;11.350;2024-01-07T14:25:33;-1.00;90.90
11140;DHT22;5624;49.388;11.350;2024-01-07T14:27:58;-1.00;91.50
11140;DHT22;5624;49.388;11.350;2024-01-07T14:30:24;-1.00;90.40
11140;DHT22;5624;49.388;11.350;2024-01-07T14:32:49;-1.10;90.00
11140;DHT22;5624;49.388;11.350;2024-01-07T14:35:16;-1.10;90.20
11140;DHT22;5624;49.388;11.350;2024-01-07T14:37:41;-1.10;89.20
11140;DHT22;5624;49.388;11.350;2024-01-07T14:40:07;-1.10;90.00
11140;DHT22;5624;49.388;11.350;2024-01-07T14:42:33;-1.00;89.70
11140;DHT22;5624;49.388;11.350;2024-01-07T14:44:59;-1.00;88.60
11140;DHT22;5624;49.388;11.350;2024-01-07T14:47:25;-1.10;88.90
11140;DHT22;5624;49.388;11.350;2024-01-07T14:49:50;-1.10;90.20
11140;DHT22;5624;49.388;11.350;2024-01-07T14:52:16;-1.00;90.00
11140;DHT22;5624;49.388;11.350;2024-01-07T14:54:41;-1.10;89.10
11140;DHT22;5624;49.388;11.350;2024-01-07T14:57:07;-1.00;89.70
11140;DHT22;5624;49.388;11.350;2024-01-07T14:59:34;-1.00;87.30
11140;DHT22;5624;49.388;11.350;2024-01-07T15:02:01;-1.00;88.20
11140;DHT22;5624;49.388;11.350;2024-01-07T15:04:27;-1.00;87.00
11140;DHT22;5624;49.388;11.350;2024-01-07T15:06:52;-1.00;87.40
11140;DHT22;5624;49.388;11.350;2024-01-07T15:09:18;-1.00;86.80
11140;DHT22;5624;49.388;11.350;2024-01-07T15:11:44;-1.10;86.80
11140;DHT22;5624;49.388;11.350;2024-01-07T15:14:13;-1.10;87.80
11140;DHT22;5624;49.388;11.350;2024-01-07T15:16:39;-1.10;86.40
11140;DHT22;5624;49.388;11.350;2024-01-07T15:19:04;-1.20;87.90
11140;DHT22;5624;49.388;11.350;2024-01-07T15:21:30;-1.30;87.10
11140;DHT22;5624;49.388;11.350;2024-01-07T15:23:55;-1.10;85.80
11140;DHT22;5624;49.388;11.350;2024-01-07T15:26:21;-1.20;84.80
11140;DHT22;5624;49.388;11.350;2024-01-07T15:28:47;-1.20;85.50
11140;DHT22;5624;49.388;11.350;2024-01-07T15:31:12;-1.10;83.50
11140;DHT22;5624;49.388;11.350;2024-01-07T15:33:38;-1.30;84.60
11140;DHT22;5624;49.388;11.350;2024-01-07T15:36:04;-1.30;84.20
11140;DHT22;5624;49.388;11.350;2024-01-07T15:38:29;-1.40;83.30
11140;DHT22;5624;49.388;11.350;2024-01-07T15:40:55;-1.40;82.90
11140;DHT22;5624;49.388;11.350;2024-01-07T15:43:20;-1.50;83.40